createdAt,value
2017-04-21T00:00:00.617Z,-3.00
2017-04-21T00:00:59.885Z,-3.00
2017-04-21T00:01:59.155Z,-3.00
2017-04-21T00:02:58.397Z,-3.10
2017-04-21T00:03:58.382Z,-3.10
2017-04-21T00:04:57.641Z,-3.10
2017-04-21T00:05:56.908Z,-3.10
2017-04-21T00:06:56.177Z,-3.10
2017-04-21T00:07:56.194Z,-3.10
2017-04-21T00:08:56.152Z,-3.20
2017-04-21T00:09:55.388Z,-3.20
2017-04-21T00:10:55.372Z,-3.20
2017-04-21T00:11:54.599Z,-3.20
2017-04-21T00:12:53.842Z,-3.20
2017-04-21T00:13:53.110Z,-3.30
2017-04-21T00:14:52.351Z,-3.30
2017-04-21T00:15:51.626Z,-3.30
2017-04-21T00:16:50.877Z,-3.30
2017-04-21T00:17:50.121Z,-3.30
2017-04-21T00:18:50.141Z,-3.30
2017-04-21T00:19:49.392Z,-3.30
2017-04-21T00:20:48.609Z,-3.40
2017-04-21T00:21:48.620Z,-3.40
2017-04-21T00:22:48.621Z,-3.40
2017-04-21T00:23:48.577Z,-3.50
2017-04-21T00:24:47.822Z,-3.50
2017-04-21T00:25:47.139Z,-3.50
2017-04-21T00:26:46.577Z,-3.50
2017-04-21T00:27:45.805Z,-3.50
2017-04-21T00:28:45.033Z,-3.50
2017-04-21T00:29:44.297Z,-3.50
2017-04-21T00:30:43.540Z,-3.50
2017-04-21T00:31:42.804Z,-3.40
2017-04-21T00:32:42.108Z,-3.40
2017-04-21T00:33:41.398Z,-3.40
2017-04-21T00:34:40.624Z,-3.40
2017-04-21T00:35:39.863Z,-3.40
2017-04-21T00:36:39.916Z,-3.30
2017-04-21T00:37:39.917Z,-3.30
2017-04-21T00:38:39.895Z,-3.20
2017-04-21T00:39:39.129Z,-3.20
2017-04-21T00:40:39.093Z,-3.20
2017-04-21T00:41:38.342Z,-3.20
2017-04-21T00:42:37.572Z,-3.20
2017-04-21T00:43:36.833Z,-3.20
2017-04-21T00:44:36.062Z,-3.20
2017-04-21T00:45:35.279Z,-3.20
2017-04-21T00:46:35.252Z,-3.20
2017-04-21T00:47:34.533Z,-3.20
2017-04-21T00:49:43.498Z,-3.10
2017-04-21T00:50:43.477Z,-3.10
2017-04-21T00:51:42.731Z,-3.10
2017-04-21T00:52:41.950Z,-3.10
2017-04-21T00:53:41.182Z,-3.20
2017-04-21T00:54:40.442Z,-3.20
2017-04-21T00:55:39.688Z,-3.20
2017-04-21T00:56:38.908Z,-3.20
2017-04-21T00:57:38.135Z,-3.30
2017-04-21T00:58:38.081Z,-3.30
2017-04-21T00:59:37.316Z,-3.30
2017-04-21T01:00:37.379Z,-3.40
2017-04-21T01:01:36.648Z,-3.40
2017-04-21T01:02:35.894Z,-3.50
2017-04-21T01:03:35.135Z,-3.50
2017-04-21T01:04:34.436Z,-3.50
2017-04-21T01:05:33.699Z,-3.40
2017-04-21T01:06:32.982Z,-3.40
2017-04-21T01:07:32.238Z,-3.40
2017-04-21T01:08:32.220Z,-3.50
2017-04-21T01:09:31.452Z,-3.50
2017-04-21T01:10:31.503Z,-3.50
2017-04-21T01:11:30.741Z,-3.50
2017-04-21T01:12:29.965Z,-3.60
2017-04-21T01:13:29.208Z,-3.60
2017-04-21T01:14:28.457Z,-3.60
2017-04-21T01:15:27.732Z,-3.60
2017-04-21T01:16:26.977Z,-3.60
2017-04-21T01:17:26.218Z,-3.60
2017-04-21T01:18:25.472Z,-3.60
2017-04-21T01:19:25.449Z,-3.60
2017-04-21T01:20:24.728Z,-3.60
2017-04-21T01:21:23.962Z,-3.60
2017-04-21T01:22:23.978Z,-3.60
2017-04-21T01:23:23.973Z,-3.70
2017-04-21T01:24:23.969Z,-3.70
2017-04-21T01:25:23.198Z,-3.70
2017-04-21T01:26:22.646Z,-3.70
2017-04-21T01:27:21.870Z,-3.70
2017-04-21T01:28:21.194Z,-3.70
2017-04-21T01:29:20.453Z,-3.70
2017-04-21T01:30:19.707Z,-3.80
2017-04-21T01:31:18.947Z,-3.80
2017-04-21T01:32:18.199Z,-3.80
2017-04-21T01:33:18.242Z,-3.80
2017-04-21T01:34:17.473Z,-3.80
2017-04-21T01:35:16.719Z,-3.80
2017-04-21T01:36:15.953Z,-3.70
2017-04-21T01:37:15.166Z,-3.70
2017-04-21T01:38:15.163Z,-3.70
2017-04-21T01:39:14.404Z,-3.70
2017-04-21T01:40:13.647Z,-3.70
2017-04-21T01:41:13.633Z,-3.70
2017-04-21T01:42:12.861Z,-3.70
2017-04-21T01:43:12.816Z,-3.70
2017-04-21T01:44:12.092Z,-3.60
2017-04-21T01:45:11.322Z,-3.70
2017-04-21T01:46:10.561Z,-3.70
2017-04-21T01:47:09.798Z,-3.70
2017-04-21T01:48:09.049Z,-3.80
2017-04-21T01:49:08.269Z,-3.80
2017-04-21T01:50:07.582Z,-3.70
2017-04-21T01:51:07.552Z,-3.70
2017-04-21T01:52:06.762Z,-3.80
2017-04-21T01:53:05.965Z,-3.80
2017-04-21T01:54:05.932Z,-3.80
2017-04-21T01:55:05.190Z,-3.80
2017-04-21T01:56:04.722Z,-3.80
2017-04-21T01:57:03.946Z,-3.80
2017-04-21T01:58:03.175Z,-3.80
2017-04-21T01:59:02.404Z,-3.80
2017-04-21T02:00:01.637Z,-3.90
2017-04-21T02:01:00.856Z,-3.90
2017-04-21T02:02:00.072Z,-3.90
2017-04-21T02:02:59.317Z,-3.80
2017-04-21T02:03:58.554Z,-3.80
2017-04-21T02:04:57.775Z,-3.90
2017-04-21T02:05:57.785Z,-3.80
2017-04-21T02:06:57.744Z,-3.80
2017-04-21T02:07:56.986Z,-3.90
2017-04-21T02:08:56.221Z,-3.90
2017-04-21T02:09:55.433Z,-3.90
2017-04-21T02:10:54.657Z,-4.00
2017-04-21T02:11:53.904Z,-4.00
2017-04-21T02:12:53.165Z,-4.00
2017-04-21T02:13:52.425Z,-4.00
2017-04-21T02:14:51.643Z,-4.00
2017-04-21T02:15:50.896Z,-4.00
2017-04-21T02:16:50.862Z,-4.00
2017-04-21T02:17:50.150Z,-4.10
2017-04-21T02:18:49.384Z,-4.10
2017-04-21T02:19:48.620Z,-4.10
2017-04-21T02:20:47.882Z,-4.10
2017-04-21T02:21:47.100Z,-4.10
2017-04-21T02:22:46.356Z,-4.10
2017-04-21T02:23:45.616Z,-4.10
2017-04-21T02:24:44.972Z,-4.10
2017-04-21T02:25:44.188Z,-4.10
2017-04-21T02:26:43.416Z,-4.10
2017-04-21T02:27:42.665Z,-4.10
2017-04-21T02:28:42.645Z,-4.10
2017-04-21T02:29:42.684Z,-4.10
2017-04-21T02:30:42.664Z,-4.10
2017-04-21T02:31:41.904Z,-4.10
2017-04-21T02:32:41.157Z,-4.10
2017-04-21T02:33:40.401Z,-4.20
2017-04-21T02:34:39.676Z,-4.20
2017-04-21T02:35:38.965Z,-4.20
2017-04-21T02:36:38.201Z,-4.10
2017-04-21T02:37:37.419Z,-4.10
2017-04-21T02:38:37.393Z,-4.20
2017-04-21T02:39:36.617Z,-4.10
2017-04-21T02:40:36.588Z,-4.20
2017-04-21T02:41:35.889Z,-4.20
2017-04-21T02:42:35.909Z,-4.20
2017-04-21T02:43:35.122Z,-4.20
2017-04-21T02:44:35.125Z,-4.20
2017-04-21T02:45:35.078Z,-4.10
2017-04-21T02:46:34.304Z,-4.10
2017-04-21T02:47:33.580Z,-4.10
2017-04-21T02:48:33.186Z,-4.10
2017-04-21T02:49:32.403Z,-4.10
2017-04-21T02:50:31.671Z,-4.10
2017-04-21T02:51:30.904Z,-4.10
2017-04-21T02:52:30.171Z,-4.10
2017-04-21T02:53:30.185Z,-4.10
2017-04-21T02:54:29.405Z,-4.10
2017-04-21T02:55:28.640Z,-4.10
2017-04-21T02:56:27.879Z,-4.10
2017-04-21T02:57:27.104Z,-4.20
2017-04-21T02:58:26.334Z,-4.20
2017-04-21T02:59:25.600Z,-4.20
2017-04-21T03:00:24.880Z,-4.30
2017-04-21T03:01:24.106Z,-4.30
2017-04-21T03:02:23.366Z,-4.30
2017-04-21T03:03:23.353Z,-4.30
2017-04-21T03:04:22.571Z,-4.30
2017-04-21T03:05:22.614Z,-4.40
2017-04-21T03:06:21.859Z,-4.30
2017-04-21T03:07:21.896Z,-4.40
2017-04-21T03:08:21.178Z,-4.40
2017-04-21T03:09:21.161Z,-4.40
2017-04-21T03:10:20.432Z,-4.40
2017-04-21T03:11:19.673Z,-4.40
2017-04-21T03:12:18.898Z,-4.50
2017-04-21T03:13:18.130Z,-4.50
2017-04-21T03:14:18.106Z,-4.50
2017-04-21T03:15:17.384Z,-4.50
2017-04-21T03:16:16.601Z,-4.50
2017-04-21T03:17:15.856Z,-4.50
2017-04-21T03:18:15.081Z,-4.50
2017-04-21T03:19:14.306Z,-4.50
2017-04-21T03:20:13.576Z,-4.50
2017-04-21T03:21:13.549Z,-4.60
2017-04-21T03:22:12.761Z,-4.50
2017-04-21T03:23:11.994Z,-4.60
2017-04-21T03:24:11.234Z,-4.60
2017-04-21T03:25:10.460Z,-4.60
2017-04-21T03:26:09.677Z,-4.60
2017-04-21T03:27:08.915Z,-4.60
2017-04-21T03:28:08.888Z,-4.60
2017-04-21T03:29:08.203Z,-4.60
2017-04-21T03:30:08.180Z,-4.60
2017-04-21T03:31:07.407Z,-4.60
2017-04-21T03:32:07.377Z,-4.60
2017-04-21T03:33:06.645Z,-4.50
2017-04-21T03:34:05.861Z,-4.50
2017-04-21T03:35:05.136Z,-4.40
2017-04-21T03:36:04.345Z,-4.40
2017-04-21T03:37:03.572Z,-4.40
2017-04-21T03:38:03.568Z,-4.30
2017-04-21T03:39:03.709Z,-4.30
2017-04-21T03:40:02.969Z,-4.30
2017-04-21T03:41:02.974Z,-4.30
2017-04-21T03:42:02.944Z,-4.30
2017-04-21T03:43:02.176Z,-4.30
2017-04-21T03:44:02.137Z,-4.30
2017-04-21T03:45:01.395Z,-4.30
2017-04-21T03:46:00.618Z,-4.30
2017-04-21T03:46:59.888Z,-4.30
2017-04-21T03:47:59.144Z,-4.30
2017-04-21T03:48:59.107Z,-4.40
2017-04-21T03:49:58.565Z,-4.40
2017-04-21T03:50:57.804Z,-4.40
2017-04-21T03:51:57.033Z,-4.40
2017-04-21T03:52:56.381Z,-4.40
2017-04-21T03:53:55.600Z,-4.40
2017-04-21T03:54:55.568Z,-4.40
2017-04-21T03:55:54.800Z,-4.40
2017-04-21T03:56:54.809Z,-4.40
2017-04-21T03:57:54.036Z,-4.40
2017-04-21T03:58:53.320Z,-4.40
2017-04-21T03:59:52.537Z,-4.40
2017-04-21T04:00:51.771Z,-4.40
2017-04-21T04:01:51.021Z,-4.50
2017-04-21T04:02:51.038Z,-4.50
2017-04-21T04:03:50.253Z,-4.50
2017-04-21T04:04:50.241Z,-4.50
2017-04-21T04:05:49.464Z,-4.50
2017-04-21T04:06:48.696Z,-4.50
2017-04-21T04:07:47.954Z,-4.50
2017-04-21T04:08:47.197Z,-4.50
2017-04-21T04:09:46.420Z,-4.50
2017-04-21T04:10:45.678Z,-4.40
2017-04-21T04:11:44.921Z,-4.40
2017-04-21T04:12:44.156Z,-4.40
2017-04-21T04:13:43.402Z,-4.40
2017-04-21T04:14:42.628Z,-4.40
2017-04-21T04:15:41.849Z,-4.40
2017-04-21T04:16:41.168Z,-4.40
2017-04-21T04:17:40.400Z,-4.30
2017-04-21T04:18:39.633Z,-4.30
2017-04-21T04:19:38.882Z,-4.20
2017-04-21T04:20:38.104Z,-4.20
2017-04-21T04:21:37.337Z,-4.10
2017-04-21T04:22:36.593Z,-4.00
2017-04-21T04:23:35.804Z,-4.00
2017-04-21T04:24:35.017Z,-3.90
2017-04-21T04:25:34.225Z,-3.80
2017-04-21T04:26:33.476Z,-3.80
2017-04-21T04:27:32.743Z,-3.70
2017-04-21T04:28:32.023Z,-3.70
2017-04-21T04:29:31.281Z,-3.60
2017-04-21T04:30:30.503Z,-3.50
2017-04-21T04:31:29.717Z,-3.50
2017-04-21T04:32:28.944Z,-3.40
2017-04-21T04:33:28.136Z,-3.40
2017-04-21T04:34:27.407Z,-3.40
2017-04-21T04:35:26.615Z,-3.30
2017-04-21T04:36:25.861Z,-3.30
2017-04-21T04:37:25.096Z,-3.20
2017-04-21T04:38:25.100Z,-3.20
2017-04-21T04:39:25.078Z,-3.10
2017-04-21T04:40:24.346Z,-3.00
2017-04-21T04:41:23.581Z,-3.00
2017-04-21T04:42:22.817Z,-2.90
2017-04-21T04:43:22.061Z,-2.80
2017-04-21T04:44:21.285Z,-2.80
2017-04-21T04:45:20.541Z,-2.70
2017-04-21T04:46:19.803Z,-2.70
2017-04-21T04:47:19.028Z,-2.60
2017-04-21T04:48:18.993Z,-2.60
2017-04-21T04:49:18.214Z,-2.50
2017-04-21T04:50:18.180Z,-2.40
2017-04-21T04:51:17.443Z,-2.40
2017-04-21T04:52:16.732Z,-2.30
2017-04-21T04:53:15.976Z,-2.20
2017-04-21T04:54:15.207Z,-2.00
2017-04-21T04:55:14.428Z,-1.90
2017-04-21T04:56:13.651Z,-1.70
2017-04-21T04:57:12.908Z,-1.50
2017-04-21T04:58:12.189Z,-1.30
2017-04-21T04:59:11.419Z,-1.10
2017-04-21T05:00:10.697Z,-1.00
2017-04-21T05:01:09.939Z,-0.80
2017-04-21T05:02:09.168Z,-0.60
2017-04-21T05:03:09.216Z,-0.50
2017-04-21T05:04:09.204Z,-0.40
2017-04-21T05:05:08.447Z,-0.20
2017-04-21T05:06:07.672Z,-0.10
2017-04-21T05:07:06.899Z,0.00
2017-04-21T05:08:06.172Z,0.00
2017-04-21T05:09:05.630Z,0.20
2017-04-21T05:10:04.896Z,0.30
2017-04-21T05:11:04.125Z,0.50
2017-04-21T05:12:03.373Z,0.60
2017-04-21T05:13:02.576Z,0.70
2017-04-21T05:14:01.917Z,0.90
2017-04-21T05:15:01.132Z,1.00
2017-04-21T05:16:00.384Z,1.10
2017-04-21T05:16:59.621Z,1.20
2017-04-21T05:17:58.930Z,1.30
2017-04-21T05:18:58.166Z,1.30
2017-04-21T05:19:58.140Z,1.40
2017-04-21T05:20:57.376Z,1.40
2017-04-21T05:21:57.390Z,1.60
2017-04-21T05:22:56.592Z,1.80
2017-04-21T05:23:55.813Z,1.90
2017-04-21T05:24:55.058Z,2.00
2017-04-21T05:25:54.284Z,2.20
2017-04-21T05:26:53.539Z,2.20
2017-04-21T05:27:52.833Z,2.40
2017-04-21T05:28:52.048Z,2.70
2017-04-21T05:29:51.282Z,2.90
2017-04-21T05:30:54.222Z,3.00
2017-04-21T05:31:53.512Z,3.30
2017-04-21T05:32:53.693Z,3.40
2017-04-21T05:33:52.925Z,3.50
2017-04-21T05:34:52.221Z,3.70
2017-04-21T05:35:51.440Z,3.90
2017-04-21T05:36:51.416Z,4.00
2017-04-21T05:37:50.644Z,4.10
2017-04-21T05:38:50.662Z,4.10
2017-04-21T05:39:49.889Z,4.20
2017-04-21T05:40:49.111Z,4.30
2017-04-21T05:41:48.418Z,4.20
2017-04-21T05:42:47.636Z,3.90
2017-04-21T05:43:46.869Z,3.60
2017-04-21T05:44:46.136Z,3.50
2017-04-21T05:45:45.353Z,3.40
2017-04-21T05:46:44.579Z,3.40
2017-04-21T05:47:43.812Z,3.20
2017-04-21T05:48:43.050Z,3.20
2017-04-21T05:49:42.283Z,3.30
2017-04-21T05:50:41.549Z,3.50
2017-04-21T05:51:40.789Z,3.70
2017-04-21T05:52:40.010Z,3.90
2017-04-21T05:53:39.250Z,4.20
2017-04-21T05:54:38.456Z,4.60
2017-04-21T05:55:37.678Z,5.60
2017-04-21T05:56:36.925Z,7.70
2017-04-21T05:57:36.176Z,9.90
2017-04-21T05:58:35.408Z,11.90
2017-04-21T05:59:34.653Z,13.90
2017-04-21T06:00:33.886Z,15.30
2017-04-21T06:01:33.094Z,16.50
2017-04-21T06:02:33.084Z,15.90
2017-04-21T06:03:32.497Z,14.90
2017-04-21T06:04:31.713Z,13.60
2017-04-21T06:05:30.970Z,12.40
2017-04-21T06:06:30.973Z,11.00
2017-04-21T06:07:30.957Z,9.80
2017-04-21T06:08:30.246Z,9.00
2017-04-21T06:09:29.472Z,8.30
2017-04-21T06:10:29.444Z,7.70
2017-04-21T06:11:28.665Z,7.30
2017-04-21T06:12:27.873Z,6.90
2017-04-21T06:13:27.087Z,6.40
2017-04-21T06:14:26.360Z,6.10
2017-04-21T06:15:25.569Z,5.70
2017-04-21T06:16:24.800Z,5.50
2017-04-21T06:17:24.008Z,5.30
2017-04-21T06:18:23.969Z,5.10
2017-04-21T06:19:23.241Z,5.00
2017-04-21T06:20:22.499Z,5.00
2017-04-21T06:21:21.724Z,4.90
2017-04-21T06:22:20.942Z,4.80
2017-04-21T06:23:20.164Z,4.90
2017-04-21T06:24:19.418Z,4.70
2017-04-21T06:25:18.654Z,4.80
2017-04-21T06:26:17.909Z,4.90
2017-04-21T06:27:17.132Z,5.00
2017-04-21T06:28:16.357Z,5.20
2017-04-21T06:29:15.588Z,5.40
2017-04-21T06:30:15.577Z,5.40
2017-04-21T06:31:14.859Z,5.40
2017-04-21T06:32:14.134Z,5.60
2017-04-21T06:33:13.349Z,5.50
2017-04-21T06:34:12.564Z,5.50
2017-04-21T06:35:12.393Z,5.30
2017-04-21T06:36:11.627Z,5.30
2017-04-21T06:37:10.848Z,5.40
2017-04-21T06:38:10.852Z,5.40
2017-04-21T06:39:10.069Z,5.40
2017-04-21T06:40:09.965Z,5.30
2017-04-21T06:41:09.208Z,5.30
2017-04-21T06:42:08.446Z,5.30
2017-04-21T06:43:07.654Z,5.30
2017-04-21T06:44:06.905Z,5.50
2017-04-21T06:45:06.123Z,5.80
2017-04-21T06:46:05.357Z,6.00
2017-04-21T06:47:04.594Z,6.30
2017-04-21T06:48:03.829Z,6.50
2017-04-21T06:49:03.076Z,6.70
2017-04-21T06:50:02.353Z,6.80
2017-04-21T06:51:01.616Z,6.80
2017-04-21T06:52:01.575Z,7.00
2017-04-21T06:53:00.793Z,7.00
2017-04-21T06:54:00.024Z,7.00
2017-04-21T06:54:59.238Z,7.10
2017-04-21T06:55:58.513Z,7.20
2017-04-21T06:56:57.729Z,7.30
2017-04-21T06:57:56.945Z,7.40
2017-04-21T06:58:56.186Z,7.50
2017-04-21T06:59:55.403Z,7.40
2017-04-21T07:00:54.693Z,7.30
2017-04-21T07:01:54.667Z,7.20
2017-04-21T07:02:57.953Z,7.00
2017-04-21T07:03:57.360Z,6.90
2017-04-21T07:04:56.596Z,6.80
2017-04-21T07:05:56.581Z,6.90
2017-04-21T07:06:55.849Z,7.00
2017-04-21T07:07:55.092Z,7.10
2017-04-21T07:08:54.386Z,7.20
2017-04-21T07:09:53.633Z,7.20
2017-04-21T07:10:52.897Z,7.40
2017-04-21T07:11:52.118Z,7.50
2017-04-21T07:12:51.387Z,7.60
2017-04-21T07:13:50.678Z,7.60
2017-04-21T07:14:49.967Z,7.70
2017-04-21T07:15:49.200Z,7.60
2017-04-21T07:16:49.165Z,7.50
2017-04-21T07:17:48.398Z,7.50
2017-04-21T07:18:48.409Z,7.60
2017-04-21T07:19:48.397Z,7.60
2017-04-21T07:20:47.608Z,7.60
2017-04-21T07:21:47.584Z,7.70
2017-04-21T07:22:46.814Z,7.70
2017-04-21T07:23:46.036Z,7.80
2017-04-21T07:24:45.301Z,7.90
2017-04-21T07:25:44.540Z,7.90
2017-04-21T07:26:43.769Z,8.00
2017-04-21T07:27:43.769Z,8.10
2017-04-21T07:28:43.748Z,7.80
2017-04-21T07:29:42.973Z,7.70
2017-04-21T07:30:42.969Z,7.70
2017-04-21T07:31:42.949Z,7.80
2017-04-21T07:32:42.188Z,8.00
2017-04-21T07:33:41.400Z,8.30
2017-04-21T07:34:40.637Z,8.50
2017-04-21T07:36:40.653Z,8.60
2017-04-21T07:37:40.629Z,8.60
2017-04-21T07:38:40.619Z,8.60
2017-04-21T07:39:39.849Z,8.80
2017-04-21T07:40:39.091Z,8.90
2017-04-21T07:42:37.618Z,8.60
2017-04-21T07:43:36.835Z,8.80
2017-04-21T07:44:36.084Z,9.00
2017-04-21T07:45:35.313Z,9.20
2017-04-21T07:46:34.556Z,9.20
2017-04-21T07:47:33.778Z,9.30
2017-04-21T07:48:33.805Z,9.30
2017-04-21T07:49:33.042Z,9.00
2017-04-21T07:50:32.256Z,9.10
2017-04-21T07:51:31.479Z,9.30
2017-04-21T07:52:30.729Z,9.40
2017-04-21T07:53:29.948Z,9.50
2017-04-21T07:54:29.212Z,9.50
2017-04-21T07:55:28.450Z,9.70
2017-04-21T07:56:27.669Z,9.90
2017-04-21T07:57:26.928Z,10.20
2017-04-21T07:58:26.209Z,10.20
2017-04-21T07:59:25.510Z,10.30
2017-04-21T08:00:24.771Z,10.10
2017-04-21T08:01:23.999Z,10.20
2017-04-21T08:02:23.242Z,10.40
2017-04-21T08:03:23.214Z,10.60
2017-04-21T08:04:22.459Z,10.60
2017-04-21T08:05:21.690Z,10.50
2017-04-21T08:06:21.776Z,10.50
2017-04-21T08:07:21.009Z,10.70
2017-04-21T08:08:20.272Z,10.70
2017-04-21T08:09:20.280Z,10.70
2017-04-21T08:10:19.536Z,10.70
2017-04-21T08:11:18.759Z,10.70
2017-04-21T08:12:18.014Z,10.80
2017-04-21T08:13:17.251Z,10.90
2017-04-21T08:14:16.460Z,11.10
2017-04-21T08:15:16.440Z,11.10
2017-04-21T08:16:15.672Z,11.30
2017-04-21T08:17:14.910Z,11.40
2017-04-21T08:18:14.173Z,11.50
2017-04-21T08:19:13.418Z,11.40
2017-04-21T08:20:12.700Z,11.60
2017-04-21T08:21:11.951Z,11.90
2017-04-21T08:22:11.189Z,11.50
2017-04-21T08:23:10.451Z,11.50
2017-04-21T08:24:09.725Z,11.30
2017-04-21T08:25:08.969Z,11.30
2017-04-21T08:26:08.957Z,11.10
2017-04-21T08:27:08.216Z,11.10
2017-04-21T08:28:07.452Z,11.30
2017-04-21T08:29:07.425Z,11.40
2017-04-21T08:30:06.685Z,11.50
2017-04-21T08:31:05.905Z,11.60
2017-04-21T08:32:05.152Z,11.50
2017-04-21T08:33:04.387Z,11.20
2017-04-21T08:34:03.662Z,11.00
2017-04-21T08:35:02.887Z,10.90
2017-04-21T08:36:02.174Z,10.80
2017-04-21T08:37:01.401Z,10.70
2017-04-21T08:38:00.631Z,10.90
2017-04-21T08:38:59.861Z,11.10
2017-04-21T08:39:59.821Z,11.30
2017-04-21T08:40:59.064Z,11.60
2017-04-21T08:41:58.365Z,11.90
2017-04-21T08:42:57.600Z,12.20
2017-04-21T08:43:56.840Z,12.40
2017-04-21T08:44:56.375Z,12.50
2017-04-21T08:45:55.615Z,12.60
2017-04-21T08:46:55.611Z,12.70
2017-04-21T08:47:55.623Z,12.70
2017-04-21T08:48:54.840Z,12.80
2017-04-21T08:49:54.074Z,13.00
2017-04-21T08:50:53.300Z,13.20
2017-04-21T08:51:52.521Z,13.30
2017-04-21T08:52:51.746Z,13.30
2017-04-21T08:53:51.036Z,13.20
2017-04-21T08:54:50.249Z,12.90
2017-04-21T08:55:50.206Z,12.90
2017-04-21T08:56:50.175Z,12.80
2017-04-21T08:57:49.411Z,12.80
2017-04-21T08:58:48.672Z,12.80
2017-04-21T08:59:48.100Z,13.00
2017-04-21T09:00:47.384Z,13.10
2017-04-21T09:01:46.621Z,13.20
2017-04-21T09:02:45.846Z,13.40
2017-04-21T09:03:45.113Z,13.50
2017-04-21T09:04:44.334Z,13.50
2017-04-21T09:05:43.618Z,13.60
2017-04-21T09:06:42.882Z,13.60
2017-04-21T09:07:42.150Z,13.60
2017-04-21T09:08:42.146Z,13.80
2017-04-21T09:09:41.476Z,13.80
2017-04-21T09:10:40.692Z,13.90
2017-04-21T09:11:39.968Z,14.00
2017-04-21T09:12:39.192Z,14.20
2017-04-21T09:13:38.431Z,14.30
2017-04-21T09:14:37.653Z,14.20
2017-04-21T09:15:36.869Z,14.20
2017-04-21T09:16:36.115Z,14.20
2017-04-21T09:17:35.430Z,14.00
2017-04-21T09:18:34.665Z,14.00
2017-04-21T09:19:33.890Z,14.10
2017-04-21T09:20:33.121Z,14.30
2017-04-21T09:21:32.373Z,14.60
2017-04-21T09:22:31.602Z,14.70
2017-04-21T09:23:31.699Z,14.90
2017-04-21T09:24:30.919Z,15.20
2017-04-21T09:25:30.137Z,15.50
2017-04-21T09:26:29.364Z,15.70
2017-04-21T09:27:28.716Z,15.80
2017-04-21T09:28:27.985Z,15.90
2017-04-21T09:29:27.238Z,15.90
2017-04-21T09:30:26.461Z,16.00
2017-04-21T09:31:48.831Z,15.90
2017-04-21T09:32:25.004Z,15.70
2017-04-21T09:33:24.290Z,15.80
2017-04-21T09:34:23.496Z,15.90
2017-04-21T09:35:23.511Z,15.90
2017-04-21T09:36:22.781Z,15.80
2017-04-21T09:37:22.014Z,15.60
2017-04-21T09:38:21.285Z,15.30
2017-04-21T09:39:21.263Z,15.10
2017-04-21T09:40:20.481Z,15.00
2017-04-21T09:41:20.453Z,15.10
2017-04-21T09:42:19.757Z,15.20
2017-04-21T09:43:19.029Z,15.10
2017-04-21T09:44:18.293Z,15.20
2017-04-21T09:45:17.513Z,14.80
2017-04-21T09:46:16.737Z,14.80
2017-04-21T09:47:16.728Z,14.50
2017-04-21T09:48:15.961Z,14.30
2017-04-21T09:49:15.190Z,13.90
2017-04-21T09:50:14.489Z,13.80
2017-04-21T09:51:13.721Z,13.80
2017-04-21T09:52:44.015Z,13.80
2017-04-21T09:53:12.365Z,14.00
2017-04-21T09:56:33.268Z,14.30
2017-04-21T09:57:26.103Z,14.60
2017-04-21T09:58:30.466Z,14.50
2017-04-21T09:59:18.163Z,14.60
2017-04-21T10:01:24.645Z,14.80
2017-04-21T10:03:46.857Z,14.90
2017-04-21T10:04:36.870Z,14.90
2017-04-21T10:04:42.746Z,14.70
2017-04-21T10:04:42.806Z,14.70
2017-04-21T10:05:04.837Z,14.70
2017-04-21T10:06:16.149Z,14.80
2017-04-21T10:06:49.235Z,14.90
2017-04-21T10:08:02.729Z,14.50
2017-04-21T10:08:06.264Z,14.60
2017-04-21T10:08:21.618Z,14.60
2017-04-21T10:09:02.048Z,14.40
2017-04-21T10:10:02.020Z,14.20
2017-04-21T10:11:01.249Z,13.70
2017-04-21T10:12:00.497Z,13.60
2017-04-21T10:12:59.758Z,13.50
2017-04-21T10:13:59.025Z,13.60
2017-04-21T10:14:59.057Z,13.80
2017-04-21T10:15:58.272Z,14.20
2017-04-21T10:16:57.501Z,14.50
2017-04-21T10:17:57.505Z,14.70
2017-04-21T10:18:57.515Z,15.10
2017-04-21T10:19:57.540Z,15.40
2017-04-21T10:20:56.844Z,15.70
2017-04-21T10:21:56.069Z,15.80
2017-04-21T10:22:55.322Z,16.10
2017-04-21T10:23:54.585Z,16.40
2017-04-21T10:24:54.554Z,16.60
2017-04-21T10:25:53.793Z,16.70
2017-04-21T10:26:53.037Z,16.90
2017-04-21T10:27:52.289Z,16.90
2017-04-21T10:28:51.518Z,17.10
2017-04-21T10:29:50.794Z,17.50
2017-04-21T10:30:50.038Z,18.00
2017-04-21T10:31:49.277Z,18.30
2017-04-21T10:32:48.521Z,18.00
2017-04-21T10:33:47.812Z,17.90
2017-04-21T10:34:47.028Z,17.80
2017-04-21T10:35:46.297Z,17.30
2017-04-21T10:36:45.520Z,16.90
2017-04-21T10:37:44.761Z,16.30
2017-04-21T10:38:44.037Z,16.10
2017-04-21T10:39:43.254Z,15.80
2017-04-21T10:40:42.481Z,15.50
2017-04-21T10:41:41.749Z,15.30
2017-04-21T10:42:41.008Z,15.00
2017-04-21T10:43:40.975Z,14.90
2017-04-21T10:44:40.221Z,14.90
2017-04-21T10:45:39.469Z,15.00
2017-04-21T10:46:38.697Z,15.20
2017-04-21T10:47:37.977Z,15.30
2017-04-21T10:48:38.000Z,15.40
2017-04-21T10:49:37.228Z,15.40
2017-04-21T10:50:36.459Z,15.40
2017-04-21T10:51:36.420Z,15.60
2017-04-21T10:52:35.636Z,15.70
2017-04-21T10:53:34.902Z,15.70
2017-04-21T10:54:34.152Z,15.60
2017-04-21T10:55:33.385Z,15.70
2017-04-21T10:56:32.616Z,16.00
2017-04-21T10:57:32.697Z,15.80
2017-04-21T10:58:31.922Z,15.90
2017-04-21T10:59:31.181Z,15.90
2017-04-21T11:00:30.412Z,16.00
2017-04-21T11:01:29.656Z,16.20
2017-04-21T11:02:28.898Z,16.00
2017-04-21T11:03:28.125Z,15.70
2017-04-21T11:04:27.336Z,15.50
2017-04-21T11:05:26.600Z,15.60
2017-04-21T11:06:26.593Z,15.40
2017-04-21T11:07:25.851Z,15.30
2017-04-21T11:08:25.089Z,15.40
2017-04-21T11:09:24.303Z,15.30
2017-04-21T11:10:24.274Z,15.30
2017-04-21T11:11:23.526Z,15.50
2017-04-21T11:12:22.752Z,15.50
2017-04-21T11:13:21.981Z,15.20
2017-04-21T11:14:21.929Z,15.20
2017-04-21T11:15:21.156Z,15.30
2017-04-21T11:16:20.387Z,15.30
2017-04-21T11:17:20.396Z,15.40
2017-04-21T11:18:19.617Z,15.60
2017-04-21T11:19:18.844Z,15.80
2017-04-21T11:20:18.063Z,16.00
2017-04-21T11:21:17.276Z,16.20
2017-04-21T11:22:16.496Z,16.20
2017-04-21T11:23:15.740Z,16.40
2017-04-21T11:24:15.021Z,16.60
2017-04-21T11:25:14.270Z,16.70
2017-04-21T11:26:13.487Z,16.60
2017-04-21T11:27:13.453Z,16.70
2017-04-21T11:28:12.664Z,16.80
2017-04-21T11:29:12.758Z,16.70
2017-04-21T11:30:11.975Z,16.50
2017-04-21T11:31:11.949Z,16.20
2017-04-21T11:32:11.172Z,16.40
2017-04-21T11:33:11.145Z,16.40
2017-04-21T11:34:10.373Z,16.50
2017-04-21T11:35:09.632Z,16.50
2017-04-21T11:36:08.847Z,16.60
2017-04-21T11:37:08.119Z,16.60
2017-04-21T11:38:07.328Z,16.70
2017-04-21T11:39:07.304Z,16.80
2017-04-21T11:40:06.535Z,17.00
2017-04-21T11:41:05.841Z,17.10
2017-04-21T11:42:05.103Z,17.10
2017-04-21T11:43:05.071Z,16.90
2017-04-21T11:44:04.300Z,16.90
2017-04-21T11:45:03.572Z,17.00
2017-04-21T11:46:02.809Z,17.10
2017-04-21T11:47:02.076Z,17.20
2017-04-21T11:48:01.294Z,17.20
2017-04-21T11:49:00.521Z,17.20
2017-04-21T11:49:59.744Z,17.30
2017-04-21T11:50:58.964Z,17.30
2017-04-21T11:51:58.209Z,17.20
2017-04-21T11:52:58.216Z,17.00
2017-04-21T11:53:58.174Z,17.00
2017-04-21T11:54:57.403Z,17.00
2017-04-21T11:55:57.364Z,17.00
2017-04-21T11:56:56.580Z,16.90
2017-04-21T11:57:55.818Z,16.70
2017-04-21T11:58:55.362Z,16.50
2017-04-21T11:59:54.599Z,16.30
2017-04-21T12:00:54.110Z,16.30
2017-04-21T12:01:53.338Z,16.60
2017-04-21T12:02:52.565Z,16.80
2017-04-21T12:03:51.890Z,16.90
2017-04-21T12:04:51.136Z,17.10
2017-04-21T12:05:51.112Z,17.20
2017-04-21T12:06:50.392Z,17.50
2017-04-21T12:07:49.593Z,17.70
2017-04-21T12:08:48.832Z,17.90
2017-04-21T12:09:48.044Z,17.90
2017-04-21T12:10:47.310Z,18.10
2017-04-21T12:11:46.539Z,18.20
2017-04-21T12:12:45.772Z,18.10
2017-04-21T12:13:45.725Z,17.90
2017-04-21T12:14:44.962Z,17.80
2017-04-21T12:15:44.924Z,17.70
2017-04-21T12:16:44.172Z,17.80
2017-04-21T12:17:43.410Z,17.70
2017-04-21T12:18:42.656Z,17.60
2017-04-21T12:19:41.941Z,17.80
2017-04-21T12:20:41.160Z,17.70
2017-04-21T12:21:40.432Z,17.30
2017-04-21T12:22:39.684Z,17.00
2017-04-21T12:23:38.920Z,16.90
2017-04-21T12:24:38.184Z,16.60
2017-04-21T12:25:38.145Z,16.50
2017-04-21T12:26:37.392Z,16.50
2017-04-21T12:27:36.648Z,16.50
2017-04-21T12:28:35.932Z,16.30
2017-04-21T12:29:35.156Z,16.20
2017-04-21T12:30:34.372Z,16.20
2017-04-21T12:31:33.612Z,16.30
2017-04-21T12:32:33.576Z,16.30
2017-04-21T12:33:32.859Z,16.30
2017-04-21T12:34:32.165Z,16.50
2017-04-21T12:35:31.380Z,16.50
2017-04-21T12:36:30.609Z,16.50
2017-04-21T12:37:29.839Z,16.50
2017-04-21T12:38:29.088Z,16.40
2017-04-21T12:39:28.776Z,16.30
2017-04-21T12:40:28.056Z,16.20
2017-04-21T12:41:28.021Z,16.20
2017-04-21T12:42:27.247Z,16.20
2017-04-21T12:43:27.413Z,16.20
2017-04-21T12:44:26.624Z,16.30
2017-04-21T12:45:25.833Z,16.30
2017-04-21T12:46:25.822Z,16.00
2017-04-21T12:47:25.103Z,15.80
2017-04-21T12:48:24.344Z,15.90
2017-04-21T12:49:23.636Z,15.90
2017-04-21T12:50:22.869Z,15.90
2017-04-21T12:51:22.100Z,15.90
2017-04-21T12:52:22.086Z,16.10